createdAt,value
2018-04-08T00:02:12.663Z,25.70
2018-04-08T00:04:40.249Z,23.30
2018-04-08T00:07:07.820Z,25.27
2018-04-08T00:09:35.387Z,22.00
2018-04-08T00:12:02.959Z,19.13
2018-04-08T00:14:31.416Z,29.33
2018-04-08T00:16:59.000Z,24.40
2018-04-08T00:19:27.341Z,24.33
2018-04-08T00:21:54.928Z,25.00
2018-04-08T00:24:22.500Z,26.63
2018-04-08T00:26:50.819Z,24.67
2018-04-08T00:29:18.500Z,24.20
2018-04-08T00:31:46.056Z,19.37
2018-04-08T00:34:13.621Z,24.97
2018-04-08T00:36:41.289Z,21.60
2018-04-08T00:39:08.925Z,21.80
2018-04-08T00:41:36.482Z,22.17
2018-04-08T00:44:04.028Z,25.57
2018-04-08T00:46:31.599Z,20.43
2018-04-08T00:48:59.194Z,29.93
2018-04-08T00:51:26.749Z,20.50
2018-04-08T00:54:06.101Z,23.80
2018-04-08T00:56:35.199Z,27.20
2018-04-08T00:59:03.665Z,22.57
2018-04-08T01:01:31.317Z,23.77
2018-04-08T01:03:58.873Z,21.40
2018-04-08T01:06:26.438Z,20.33
2018-04-08T01:08:54.191Z,19.83
2018-04-08T01:11:21.756Z,21.63
2018-04-08T01:13:49.324Z,21.53
2018-04-08T01:16:16.905Z,25.80
2018-04-08T01:18:45.272Z,25.93
2018-04-08T01:21:12.929Z,22.70
2018-04-08T01:23:40.503Z,25.20
2018-04-08T01:26:08.113Z,22.27
2018-04-08T01:28:35.692Z,21.00
2018-04-08T01:31:03.280Z,22.90
2018-04-08T01:33:30.927Z,23.33
2018-04-08T01:35:58.491Z,23.50
2018-04-08T01:38:26.840Z,21.67
2018-04-08T01:40:54.392Z,34.10
2018-04-08T01:43:21.976Z,25.57
2018-04-08T01:45:49.562Z,24.40
2018-04-08T01:48:17.921Z,24.57
2018-04-08T01:50:45.512Z,21.17
2018-04-08T01:53:13.852Z,23.03
2018-04-08T01:55:41.492Z,20.83
2018-04-08T01:58:09.165Z,22.13
2018-04-08T02:00:36.764Z,23.50
2018-04-08T02:03:05.118Z,22.97
2018-04-08T02:05:32.683Z,21.57
2018-04-08T02:08:00.333Z,22.90
2018-04-08T02:10:27.889Z,22.93
2018-04-08T02:12:55.558Z,22.20
2018-04-08T02:15:23.139Z,24.40
2018-04-08T02:17:51.456Z,23.20
2018-04-08T02:20:19.026Z,23.10
2018-04-08T02:22:46.602Z,21.33
2018-04-08T02:25:14.273Z,22.40
2018-04-08T02:27:41.822Z,26.40
2018-04-08T02:30:09.429Z,24.47
2018-04-08T02:32:37.756Z,25.00
2018-04-08T02:35:05.320Z,25.03
2018-04-08T02:37:32.960Z,24.57
2018-04-08T02:40:00.545Z,27.30
2018-04-08T02:42:28.928Z,27.10
2018-04-08T02:44:56.485Z,26.33
2018-04-08T02:47:24.077Z,25.80
2018-04-08T02:49:52.403Z,31.00
2018-04-08T02:52:19.981Z,26.20
2018-04-08T02:54:47.578Z,29.50
2018-04-08T02:57:15.900Z,27.23
2018-04-08T02:59:43.466Z,25.80
2018-04-08T03:02:11.045Z,32.83
2018-04-08T03:04:38.621Z,25.87
2018-04-08T03:07:06.252Z,29.70
2018-04-08T03:09:33.812Z,28.07
2018-04-08T03:12:01.397Z,32.87
2018-04-08T03:14:30.492Z,28.03
2018-04-08T03:16:59.676Z,25.13
2018-04-08T03:19:27.239Z,33.27
2018-04-08T03:21:54.837Z,30.50
2018-04-08T03:24:22.410Z,28.17
2018-04-08T03:26:49.961Z,25.10
2018-04-08T03:29:17.574Z,27.70
2018-04-08T03:31:45.230Z,30.00
2018-04-08T03:34:12.803Z,27.97
2018-04-08T03:36:40.498Z,30.00
2018-04-08T03:39:08.056Z,29.80
2018-04-08T03:41:36.463Z,26.70
2018-04-08T03:44:04.033Z,32.47
2018-04-08T03:46:31.612Z,27.30
2018-04-08T03:48:59.160Z,26.90
2018-04-08T03:51:26.724Z,34.70
2018-04-08T03:53:54.320Z,30.97
2018-04-08T03:56:22.682Z,32.43
2018-04-08T03:58:50.255Z,29.47
2018-04-08T04:01:18.577Z,29.93
2018-04-08T04:03:46.699Z,29.40
2018-04-08T04:06:14.280Z,30.27
2018-04-08T04:08:41.854Z,37.77
2018-04-08T04:11:09.408Z,24.57
2018-04-08T04:13:36.989Z,28.03
2018-04-08T04:16:04.566Z,32.27
2018-04-08T04:18:43.956Z,31.20
2018-04-08T04:21:23.379Z,31.87
2018-04-08T04:24:03.634Z,28.60
2018-04-08T04:26:32.056Z,30.43
2018-04-08T04:28:59.645Z,38.70
2018-04-08T04:31:27.224Z,30.57
2018-04-08T04:33:54.809Z,33.57
2018-04-08T04:36:22.373Z,32.50
2018-04-08T04:38:49.984Z,32.20
2018-04-08T04:41:17.552Z,36.03
2018-04-08T04:43:45.433Z,30.37
2018-04-08T04:46:13.030Z,30.17
2018-04-08T04:48:40.587Z,30.10
2018-04-08T04:51:08.165Z,34.80
2018-04-08T04:53:35.754Z,28.33
2018-04-08T04:56:03.325Z,29.30
2018-04-08T04:58:31.655Z,27.57
2018-04-08T05:00:59.290Z,27.57
2018-04-08T05:03:27.635Z,33.47
2018-04-08T05:05:55.212Z,35.33
2018-04-08T05:08:23.528Z,30.67
2018-04-08T05:10:51.100Z,32.47
2018-04-08T05:13:18.688Z,32.07
2018-04-08T05:15:46.247Z,29.17
2018-04-08T05:18:13.807Z,28.43
2018-04-08T05:20:41.388Z,29.83
2018-04-08T05:23:09.775Z,31.83
2018-04-08T05:25:38.087Z,32.17
2018-04-08T05:28:05.635Z,30.40
2018-04-08T05:30:33.268Z,31.13
2018-04-08T05:33:01.714Z,29.67
2018-04-08T05:35:29.303Z,23.80
2018-04-08T05:37:57.617Z,28.93
2018-04-08T05:40:25.193Z,28.50
2018-04-08T05:42:52.760Z,35.10
2018-04-08T05:45:20.428Z,30.93
2018-04-08T05:47:47.999Z,28.50
2018-04-08T05:50:17.074Z,29.03
2018-04-08T05:52:44.659Z,29.40
2018-04-08T05:55:12.212Z,31.70
2018-04-08T05:57:39.781Z,31.03
2018-04-08T06:00:07.356Z,29.70
2018-04-08T06:02:35.720Z,31.10
2018-04-08T06:05:03.288Z,26.63
2018-04-08T06:07:31.621Z,31.70
2018-04-08T06:09:59.215Z,25.07
2018-04-08T06:12:28.305Z,31.43
2018-04-08T06:14:55.954Z,30.47
2018-04-08T06:17:23.531Z,27.53
2018-04-08T06:19:51.122Z,27.50
2018-04-08T06:22:18.696Z,28.70
2018-04-08T06:24:46.262Z,26.10
2018-04-08T06:27:13.831Z,28.60
2018-04-08T06:29:41.508Z,29.40
2018-04-08T06:32:09.072Z,27.27
2018-04-08T06:34:36.669Z,31.43
2018-04-08T06:37:05.001Z,26.80
2018-04-08T06:39:32.560Z,27.60
2018-04-08T06:42:00.203Z,29.73
2018-04-08T06:44:27.765Z,30.57
2018-04-08T06:46:55.333Z,36.23
2018-04-08T06:49:22.977Z,30.03
2018-04-08T06:51:50.600Z,26.73
2018-04-08T06:54:18.930Z,26.17
2018-04-08T06:56:46.529Z,35.53
2018-04-08T06:59:14.112Z,23.53
2018-04-08T07:01:42.460Z,25.83
2018-04-08T07:04:10.049Z,26.90
2018-04-08T07:06:38.369Z,26.23
2018-04-08T07:09:05.945Z,34.43
2018-04-08T07:11:34.300Z,25.40
2018-04-08T07:14:01.854Z,23.80
2018-04-08T07:16:29.474Z,24.80
2018-04-08T07:18:57.132Z,32.83
2018-04-08T07:21:25.449Z,28.20
2018-04-08T07:23:53.036Z,27.00
2018-04-08T07:26:20.590Z,26.47
2018-04-08T07:28:48.232Z,23.33
2018-04-08T07:31:15.793Z,23.90
2018-04-08T07:33:43.367Z,23.37
2018-04-08T07:36:10.946Z,27.17
2018-04-08T07:38:38.500Z,31.97
2018-04-08T07:41:06.163Z,24.83
2018-04-08T07:43:33.727Z,21.97
2018-04-08T07:46:01.310Z,25.63
2018-04-08T07:48:29.676Z,26.43
2018-04-08T07:50:57.266Z,26.03
2018-04-08T07:53:24.822Z,22.60
2018-04-08T07:55:52.429Z,23.40
2018-04-08T07:58:19.996Z,30.90
2018-04-08T08:00:47.596Z,23.20
2018-04-08T08:03:15.157Z,26.73
2018-04-08T08:05:43.498Z,25.20
2018-04-08T08:08:11.059Z,24.40
2018-04-08T08:10:38.644Z,22.50
2018-04-08T08:13:06.998Z,23.27
2018-04-08T08:15:34.643Z,22.50
2018-04-08T08:18:02.269Z,24.53
2018-04-08T08:20:29.871Z,23.93
2018-04-08T08:22:57.479Z,23.63
2018-04-08T08:25:25.801Z,24.17
2018-04-08T08:27:53.370Z,23.80
2018-04-08T08:30:20.940Z,23.43
2018-04-08T08:32:48.529Z,22.57
2018-04-08T08:35:16.868Z,25.00
2018-04-08T08:37:44.436Z,22.53
2018-04-08T08:40:12.049Z,20.77
2018-04-08T08:42:39.652Z,26.30
2018-04-08T08:45:07.211Z,19.97
2018-04-08T08:47:34.778Z,24.13
2018-04-08T08:50:03.202Z,22.77
2018-04-08T08:52:30.801Z,20.33
2018-04-08T08:54:58.533Z,24.03
2018-04-08T08:57:26.053Z,22.93
2018-04-08T08:59:54.373Z,19.87
2018-04-08T09:02:21.947Z,26.97
2018-04-08T09:04:49.501Z,22.60
2018-04-08T09:07:17.075Z,24.63
2018-04-08T09:09:44.641Z,20.93
2018-04-08T09:12:12.268Z,20.63
2018-04-08T09:14:39.816Z,19.97
2018-04-08T09:17:07.375Z,26.50
2018-04-08T09:19:44.868Z,20.10
2018-04-08T09:22:18.170Z,17.87
2018-04-08T09:27:47.498Z,15.70
2018-04-08T09:30:15.100Z,13.20
2018-04-08T09:32:42.684Z,14.63
2018-04-08T09:35:10.290Z,13.10
2018-04-08T09:37:37.876Z,12.97
2018-04-08T09:40:05.506Z,12.37
2018-04-08T09:42:33.069Z,11.73
2018-04-08T09:45:00.640Z,12.50
2018-04-08T09:47:28.244Z,11.87
2018-04-08T09:49:56.577Z,11.60
2018-04-08T09:52:24.128Z,9.60
2018-04-08T09:54:51.740Z,9.93
2018-04-08T09:57:20.062Z,10.80
2018-04-08T09:59:47.617Z,12.10
2018-04-08T10:02:30.868Z,10.73
2018-04-08T10:04:58.429Z,10.27
2018-04-08T10:07:25.996Z,11.37
2018-04-08T10:09:53.581Z,13.57
2018-04-08T10:12:21.910Z,11.97
2018-04-08T10:14:49.527Z,13.10
2018-04-08T10:17:17.083Z,14.17
2018-04-08T10:19:45.396Z,11.10
2018-04-08T10:22:12.975Z,10.43
2018-04-08T10:24:40.542Z,10.97
2018-04-08T10:27:08.120Z,10.00
2018-04-08T10:29:35.711Z,11.43
2018-04-08T10:32:03.322Z,10.30
2018-04-08T10:34:30.912Z,11.83
2018-04-08T10:36:59.270Z,9.93
2018-04-08T10:39:26.860Z,10.70
2018-04-08T10:41:55.296Z,10.57
2018-04-08T10:44:22.853Z,10.37
2018-04-08T10:46:50.442Z,11.03
2018-04-08T10:49:18.778Z,11.90
2018-04-08T10:51:46.336Z,15.40
2018-04-08T10:54:13.940Z,12.87
2018-04-08T10:56:42.365Z,11.07
2018-04-08T10:59:09.946Z,11.10
2018-04-08T11:01:37.520Z,11.13
2018-04-08T11:04:05.186Z,12.10
2018-04-08T11:06:32.788Z,13.33
2018-04-08T11:09:00.361Z,12.67
2018-04-08T11:11:27.941Z,12.07
2018-04-08T11:13:55.613Z,13.00
2018-04-08T11:16:23.207Z,12.33
2018-04-08T11:18:51.524Z,15.13
2018-04-08T11:21:19.134Z,17.03
2018-04-08T11:23:46.772Z,22.93
2018-04-08T11:26:14.354Z,16.67
2018-04-08T11:28:41.998Z,14.90
2018-04-08T11:31:09.568Z,15.93
2018-04-08T11:33:37.217Z,15.27
2018-04-08T11:36:04.886Z,16.30
2018-04-08T11:38:32.445Z,17.80
2018-04-08T11:41:00.032Z,17.70
2018-04-08T11:43:28.363Z,15.93
2018-04-08T11:45:55.935Z,16.23
2018-04-08T11:48:23.552Z,16.30
2018-04-08T11:50:51.228Z,16.73
2018-04-08T11:53:18.780Z,19.30
2018-04-08T11:55:46.370Z,18.70
2018-04-08T11:58:13.928Z,18.73
2018-04-08T12:00:41.492Z,18.00
2018-04-08T12:03:09.091Z,19.50
2018-04-08T12:05:37.425Z,19.50
2018-04-08T12:08:05.016Z,19.33
2018-04-08T12:10:33.347Z,21.60
2018-04-08T12:13:00.989Z,17.87
2018-04-08T12:15:28.764Z,22.50
2018-04-08T12:17:56.373Z,22.00
2018-04-08T12:20:23.951Z,23.07
2018-04-08T12:22:52.288Z,21.53
2018-04-08T12:25:19.879Z,21.13
2018-04-08T12:27:48.197Z,22.13
2018-04-08T12:30:15.776Z,21.47
2018-04-08T12:32:43.348Z,23.03
2018-04-08T12:35:10.924Z,27.60
2018-04-08T12:37:38.564Z,25.97
2018-04-08T12:40:06.302Z,23.60
2018-04-08T12:42:33.853Z,30.50
2018-04-08T12:45:01.432Z,25.40
2018-04-08T12:47:29.028Z,23.57
2018-04-08T12:49:56.582Z,18.47
2018-04-08T12:52:24.176Z,20.73
2018-04-08T12:54:51.740Z,18.23
2018-04-08T12:57:19.357Z,18.03
2018-04-08T12:59:48.445Z,23.67
2018-04-08T13:02:16.023Z,24.10
2018-04-08T13:04:44.352Z,22.20
2018-04-08T13:07:11.932Z,21.03
2018-04-08T13:09:39.549Z,21.90
2018-04-08T13:12:07.152Z,18.60
2018-04-08T13:14:34.736Z,23.77
2018-04-08T13:17:03.870Z,18.10
2018-04-08T13:19:31.432Z,34.57
2018-04-08T13:21:59.080Z,44.63
2018-04-08T13:24:27.406Z,68.00
2018-04-08T13:26:54.990Z,26.90
2018-04-08T13:29:22.648Z,41.50
2018-04-08T13:31:50.236Z,44.83
2018-04-08T13:34:17.807Z,46.83
2018-04-08T13:36:45.490Z,28.03
2018-04-08T13:39:13.152Z,27.93
2018-04-08T13:41:40.732Z,44.53
2018-04-08T13:44:08.288Z,24.53
2018-04-08T13:46:35.884Z,23.80
2018-04-08T13:49:03.428Z,26.17
2018-04-08T13:54:04.955Z,49.07
2018-04-08T13:56:32.532Z,54.27
2018-04-08T13:59:00.108Z,53.37
2018-04-08T14:01:27.674Z,32.47
2018-04-08T14:03:55.304Z,29.27
2018-04-08T14:06:22.904Z,15.70
2018-04-08T14:08:50.473Z,20.47
2018-04-08T14:11:18.918Z,20.57
2018-04-08T14:13:46.474Z,13.60
2018-04-08T14:16:14.034Z,15.43
2018-04-08T14:18:41.613Z,21.60
2018-04-08T14:21:09.195Z,26.93
2018-04-08T14:23:37.551Z,23.13
2018-04-08T14:26:05.196Z,23.00
2018-04-08T14:28:32.778Z,25.10
2018-04-08T14:31:00.373Z,21.70
2018-04-08T14:33:27.952Z,14.90
2018-04-08T14:35:55.542Z,17.13
2018-04-08T14:38:23.110Z,16.40
2018-04-08T14:40:50.748Z,16.63
2018-04-08T14:43:18.330Z,16.60
2018-04-08T14:45:45.904Z,17.37
2018-04-08T14:48:13.501Z,17.47
2018-04-08T14:50:41.087Z,17.13
2018-04-08T14:53:08.646Z,15.90
2018-04-08T14:55:36.320Z,17.60
2018-04-08T14:58:03.880Z,19.63
2018-04-08T15:00:31.514Z,19.90
2018-04-08T15:02:59.071Z,19.33
2018-04-08T15:05:26.656Z,21.73
2018-04-08T15:07:54.228Z,18.60
2018-04-08T15:10:22.673Z,18.97
2018-04-08T15:12:50.229Z,19.63
2018-04-08T15:15:17.778Z,24.60
2018-04-08T15:17:45.354Z,19.33
2018-04-08T15:20:12.925Z,20.10
2018-04-08T15:22:40.512Z,18.80
2018-04-08T15:25:08.092Z,19.57
2018-04-08T15:27:36.420Z,20.53
2018-04-08T15:30:04.001Z,20.30
2018-04-08T15:32:33.069Z,20.07
2018-04-08T15:35:00.643Z,20.57
2018-04-08T15:37:28.211Z,22.50
2018-04-08T15:39:55.872Z,21.90
2018-04-08T15:42:23.455Z,22.87
2018-04-08T15:44:51.812Z,23.00
2018-04-08T15:47:19.376Z,22.87
2018-04-08T15:49:48.495Z,24.70
2018-04-08T15:52:16.843Z,29.00
2018-04-08T15:54:44.404Z,25.53
2018-04-08T15:57:12.772Z,26.53
2018-04-08T15:59:40.440Z,27.90
2018-04-08T16:02:08.011Z,27.60
2018-04-08T16:04:35.632Z,30.50
2018-04-08T16:07:03.183Z,29.90
2018-04-08T16:09:30.762Z,33.50
2018-04-08T16:11:58.340Z,27.53
2018-04-08T16:14:25.999Z,29.50
2018-04-08T16:16:53.548Z,27.80
2018-04-08T16:19:21.220Z,29.20
2018-04-08T16:21:48.896Z,28.10
2018-04-08T16:24:16.548Z,29.60
2018-04-08T16:26:44.128Z,27.77
2018-04-08T16:29:11.701Z,29.30
2018-04-08T16:31:40.067Z,33.20
2018-04-08T16:34:08.384Z,29.30
2018-04-08T16:36:35.968Z,29.37
2018-04-08T16:39:03.548Z,32.13
2018-04-08T16:41:31.112Z,30.40
2018-04-08T16:43:58.773Z,37.57
2018-04-08T16:46:26.484Z,28.67
2018-04-08T16:48:54.081Z,31.43
2018-04-08T16:51:21.652Z,30.97
2018-04-08T16:53:49.211Z,30.47
2018-04-08T16:56:16.808Z,32.93
2018-04-08T16:58:44.419Z,37.40
2018-04-08T17:01:11.983Z,33.90
2018-04-08T17:03:39.571Z,32.60
2018-04-08T17:06:07.916Z,33.57
2018-04-08T17:08:35.476Z,32.67
2018-04-08T17:11:03.151Z,32.33
2018-04-08T17:13:32.225Z,33.80
2018-04-08T17:15:59.800Z,34.37
2018-04-08T17:18:27.456Z,34.33
2018-04-08T17:20:55.020Z,35.43
2018-04-08T17:23:22.600Z,34.40
2018-04-08T17:25:50.980Z,33.90
2018-04-08T17:28:18.548Z,37.13
2018-04-08T17:30:46.121Z,36.47
2018-04-08T17:33:13.702Z,33.70
2018-04-08T17:35:41.284Z,36.50
2018-04-08T17:38:08.857Z,39.93
2018-04-08T17:40:36.432Z,34.60
2018-04-08T17:43:04.027Z,43.97
2018-04-08T17:45:31.584Z,46.43
2018-04-08T17:47:59.159Z,35.17
2018-04-08T17:50:26.751Z,35.40
2018-04-08T17:52:54.334Z,37.03
2018-04-08T17:55:22.653Z,39.17
2018-04-08T17:57:50.241Z,38.23
2018-04-08T18:00:17.829Z,39.50
2018-04-08T18:02:45.383Z,39.57
2018-04-08T18:05:13.781Z,44.63
2018-04-08T18:07:41.404Z,45.90
2018-04-08T18:10:09.034Z,41.70
2018-04-08T18:12:36.673Z,41.20
2018-04-08T18:15:04.300Z,44.87
2018-04-08T18:17:31.903Z,38.13
2018-04-08T18:19:59.509Z,40.77
2018-04-08T18:22:27.080Z,40.03
2018-04-08T18:24:56.528Z,39.20
2018-04-08T18:27:24.082Z,38.37
2018-04-08T18:29:53.507Z,39.30
2018-04-08T18:32:21.202Z,38.20
2018-04-08T18:34:49.624Z,43.90
2018-04-08T18:37:17.236Z,43.40
2018-04-08T18:39:44.809Z,41.93
2018-04-08T18:42:12.431Z,40.97
2018-04-08T18:44:40.014Z,38.23
2018-04-08T18:47:07.568Z,41.90
2018-04-08T18:49:35.158Z,39.53
2018-04-08T18:52:02.791Z,41.83
2018-04-08T18:54:30.437Z,42.80
2018-04-08T18:56:58.024Z,40.30
2018-04-08T18:59:25.647Z,43.53
2018-04-08T19:01:53.233Z,42.73
2018-04-08T19:04:20.811Z,45.50
2018-04-08T19:06:48.390Z,40.67
2018-04-08T19:09:16.756Z,43.23
2018-04-08T19:11:45.210Z,39.80
2018-04-08T19:14:12.812Z,39.37
2018-04-08T19:16:40.441Z,38.67
2018-04-08T19:19:07.997Z,42.20
2018-04-08T19:21:35.597Z,45.43
2018-04-08T19:24:03.162Z,44.43
2018-04-08T19:26:30.724Z,49.63
2018-04-08T19:28:58.382Z,43.93
2018-04-08T19:31:26.024Z,41.83
2018-04-08T19:33:54.361Z,42.83
2018-04-08T19:36:21.960Z,44.50
2018-04-08T19:38:50.304Z,46.43
2018-04-08T19:41:17.869Z,40.67
2018-04-08T19:43:46.240Z,41.70
2018-04-08T19:46:13.800Z,47.67
2018-04-08T19:48:41.442Z,43.30
2018-04-08T19:51:09.009Z,42.00
2018-04-08T19:53:36.585Z,44.33
2018-04-08T19:56:04.168Z,48.23
2018-04-08T19:58:31.734Z,48.70
2018-04-08T20:00:59.344Z,41.87
2018-04-08T20:03:26.901Z,47.90
2018-04-08T20:05:54.492Z,50.03
2018-04-08T20:08:22.078Z,46.50
2018-04-08T20:10:50.545Z,53.07
2018-04-08T20:13:18.103Z,48.77
2018-04-08T20:15:45.686Z,44.83
2018-04-08T20:18:14.154Z,50.40
2018-04-08T20:20:41.733Z,46.37
2018-04-08T20:23:09.309Z,45.03
2018-04-08T20:25:36.894Z,47.50
2018-04-08T20:28:04.470Z,50.00
2018-04-08T20:30:32.021Z,47.60
2018-04-08T20:32:59.649Z,41.77
2018-04-08T20:35:27.952Z,46.70
2018-04-08T20:37:55.567Z,45.30
2018-04-08T20:40:23.160Z,47.83
2018-04-08T20:42:50.740Z,46.83
2018-04-08T20:45:18.317Z,47.20
2018-04-08T20:47:45.878Z,50.40
2018-04-08T20:50:13.533Z,53.30
2018-04-08T20:52:41.133Z,50.87
2018-04-08T20:55:08.744Z,59.70
2018-04-08T20:57:36.405Z,52.60
2018-04-08T21:00:03.956Z,52.10
2018-04-08T21:02:31.569Z,54.50
2018-04-08T21:04:59.896Z,50.60
2018-04-08T21:07:27.468Z,52.07
2018-04-08T21:09:55.126Z,56.07
2018-04-08T21:12:22.695Z,49.87
2018-04-08T21:14:50.293Z,54.00
2018-04-08T21:17:17.876Z,50.13
2018-04-08T21:19:45.459Z,53.23
2018-04-08T21:22:13.053Z,48.67
2018-04-08T21:24:41.409Z,51.60
2018-04-08T21:27:08.988Z,52.50
2018-04-08T21:29:37.384Z,51.00
2018-04-08T21:32:05.712Z,53.90
2018-04-08T21:34:33.280Z,51.63
2018-04-08T21:37:00.872Z,52.40
2018-04-08T21:39:29.213Z,54.43
2018-04-08T21:41:56.882Z,56.47
2018-04-08T21:44:24.463Z,56.00
2018-04-08T21:46:52.817Z,57.47
2018-04-08T21:49:20.433Z,52.20
2018-04-08T21:51:48.009Z,49.67
2018-04-08T21:54:15.585Z,55.87
2018-04-08T21:56:43.248Z,51.23
2018-04-08T21:59:10.803Z,52.80
2018-04-08T22:01:38.467Z,55.13
2018-04-08T22:04:06.032Z,56.00
2018-04-08T22:06:33.637Z,57.87
2018-04-08T22:09:01.969Z,54.00
2018-04-08T22:11:29.538Z,54.87
2018-04-08T22:13:57.150Z,53.50
2018-04-08T22:16:24.756Z,56.93
2018-04-08T22:18:52.346Z,57.67
2018-04-08T22:21:20.684Z,52.73
2018-04-08T22:23:48.264Z,56.23
2018-04-08T22:26:15.875Z,55.97
2018-04-08T22:28:43.475Z,54.10
2018-04-08T22:31:11.037Z,61.37
2018-04-08T22:33:39.416Z,55.50
2018-04-08T22:36:06.994Z,51.03
2018-04-08T22:38:35.368Z,52.40
2018-04-08T22:41:02.922Z,53.53
2018-04-08T22:43:31.282Z,54.67
2018-04-08T22:45:59.019Z,54.13
2018-04-08T22:48:26.610Z,66.53
2018-04-08T22:50:54.169Z,61.17
2018-04-08T22:53:21.722Z,59.00
2018-04-08T22:55:49.301Z,61.77
2018-04-08T22:58:17.632Z,64.03
2018-04-08T23:00:45.213Z,64.80
2018-04-08T23:03:12.781Z,59.40
2018-04-08T23:05:40.369Z,60.37
2018-04-08T23:08:08.717Z,56.80
2018-04-08T23:10:36.277Z,58.27
2018-04-08T23:13:03.843Z,59.50
2018-04-08T23:15:31.500Z,59.27
2018-04-08T23:17:59.073Z,60.60
2018-04-08T23:20:28.135Z,61.87
2018-04-08T23:22:55.711Z,66.97
2018-04-08T23:25:23.297Z,64.23
2018-04-08T23:27:51.648Z,62.50
2018-04-08T23:30:19.220Z,57.30
2018-04-08T23:32:46.777Z,68.10
2018-04-08T23:35:14.360Z,61.53
2018-04-08T23:37:42.676Z,66.70
2018-04-08T23:40:10.257Z,58.50
2018-04-08T23:42:37.819Z,57.50
2018-04-08T23:45:05.404Z,59.93
2018-04-08T23:47:33.720Z,62.87
2018-04-08T23:50:01.281Z,58.80
2018-04-08T23:52:28.889Z,64.20
2018-04-08T23:54:56.536Z,63.20
2018-04-08T23:57:24.091Z,64.93
2018-04-08T23:59:51.645Z,63.73
